sensor_id;sensor_type;location;lat;lon;timestamp;pressure;altitude;pressure_sealevel;temperature;humidity
55685;BME280;41883;49.544;8.646;2023-05-22T00:00:05;100074.25;;;17.33;nan
55685;BME280;41883;49.544;8.646;2023-05-22T00:02:34;100074.25;;;17.27;nan
55685;BME280;41883;49.544;8.646;2023-05-22T00:05:04;100068.72;;;17.22;nan
55685;BME280;41883;49.544;8.646;2023-05-22T00:07:30;100073.66;;;17.11;nan
55685;BME280;41883;49.544;8.646;2023-05-22T00:09:56;100084.97;;;17.07;nan
55685;BME280;41883;49.544;8.646;2023-05-22T00:12:21;100073.44;;;17.06;nan
55685;BME280;41883;49.544;8.646;2023-05-22T00:14:46;100070.75;;;17.06;nan
55685;BME280;41883;49.544;8.646;2023-05-22T00:17:11;100071.19;;;17.03;nan
55685;BME280;41883;49.544;8.646;2023-05-22T00:19:41;100075.69;;;17.03;nan
55685;BME280;41883;49.544;8.646;2023-05-22T00:22:08;100077.13;;;16.98;nan
55685;BME280;41883;49.544;8.646;2023-05-22T00:24:33;100071.97;;;16.97;nan
55685;BME280;41883;49.544;8.646;2023-05-22T00:26:58;100070.97;;;16.91;nan
55685;BME280;41883;49.544;8.646;2023-05-22T00:29:23;100068.50;;;16.83;nan
55685;BME280;41883;49.544;8.646;2023-05-22T00:31:49;100068.06;;;16.80;nan
55685;BME280;41883;49.544;8.646;2023-05-22T00:34:14;100077.28;;;16.77;nan
55685;BME280;41883;49.544;8.646;2023-05-22T00:36:39;100070.09;;;16.71;nan
55685;BME280;41883;49.544;8.646;2023-05-22T00:39:04;100073.59;;;16.71;nan
55685;BME280;41883;49.544;8.646;2023-05-22T00:41:30;100074.41;;;16.72;nan
55685;BME280;41883;49.544;8.646;2023-05-22T00:43:58;100070.50;;;16.68;nan
55685;BME280;41883;49.544;8.646;2023-05-22T00:46:24;100078.91;;;16.65;nan
55685;BME280;41883;49.544;8.646;2023-05-22T00:48:49;100077.06;;;16.65;nan
55685;BME280;41883;49.544;8.646;2023-05-22T00:51:17;100081.16;;;16.68;nan
55685;BME280;41883;49.544;8.646;2023-05-22T00:53:45;100075.00;;;16.67;nan
55685;BME280;41883;49.544;8.646;2023-05-22T00:56:10;100068.03;;;16.66;nan
55685;BME280;41883;49.544;8.646;2023-05-22T00:58:37;100064.31;;;16.61;nan
55685;BME280;41883;49.544;8.646;2023-05-22T01:01:02;100061.03;;;16.52;nan
55685;BME280;41883;49.544;8.646;2023-05-22T01:03:28;100072.09;;;16.42;nan
55685;BME280;41883;49.544;8.646;2023-05-22T01:05:54;100057.06;;;16.34;nan
55685;BME280;41883;49.544;8.646;2023-05-22T01:08:20;100058.91;;;16.27;nan
55685;BME280;41883;49.544;8.646;2023-05-22T01:10:51;100059.09;;;16.19;nan
55685;BME280;41883;49.544;8.646;2023-05-22T01:13:33;100064.38;;;16.12;nan
55685;BME280;41883;49.544;8.646;2023-05-22T01:16:14;100064.97;;;16.08;nan
55685;BME280;41883;49.544;8.646;2023-05-22T01:18:55;100063.31;;;16.00;nan
55685;BME280;41883;49.544;8.646;2023-05-22T01:21:36;100062.66;;;15.91;nan
55685;BME280;41883;49.544;8.646;2023-05-22T01:24:33;100060.34;;;15.82;nan
55685;BME280;41883;49.544;8.646;2023-05-22T01:32:58;100062.09;;;15.68;nan
55685;BME280;41883;49.544;8.646;2023-05-22T01:35:24;100059.91;;;15.71;nan
55685;BME280;41883;49.544;8.646;2023-05-22T01:37:50;100065.84;;;15.74;nan
55685;BME280;41883;49.544;8.646;2023-05-22T01:40:16;100067.72;;;15.73;nan
55685;BME280;41883;49.544;8.646;2023-05-22T01:42:42;100075.00;;;15.64;nan
55685;BME280;41883;49.544;8.646;2023-05-22T01:45:09;100071.88;;;15.61;nan
55685;BME280;41883;49.544;8.646;2023-05-22T01:47:34;100075.72;;;15.51;nan
55685;BME280;41883;49.544;8.646;2023-05-22T01:50:00;100081.44;;;15.48;nan
55685;BME280;41883;49.544;8.646;2023-05-22T01:55:05;100078.38;;;15.45;nan
55685;BME280;41883;49.544;8.646;2023-05-22T01:57:40;100082.84;;;15.44;nan
55685;BME280;41883;49.544;8.646;2023-05-22T02:00:11;100081.03;;;15.45;nan
55685;BME280;41883;49.544;8.646;2023-05-22T02:02:42;100087.16;;;15.45;nan
55685;BME280;41883;49.544;8.646;2023-05-22T02:05:11;100085.31;;;15.46;nan
55685;BME280;41883;49.544;8.646;2023-05-22T02:07:39;100082.25;;;15.49;nan
55685;BME280;41883;49.544;8.646;2023-05-22T02:10:06;100081.06;;;15.51;nan
55685;BME280;41883;49.544;8.646;2023-05-22T02:12:34;100089.69;;;15.54;nan
55685;BME280;41883;49.544;8.646;2023-05-22T02:15:00;100088.03;;;15.53;nan
55685;BME280;41883;49.544;8.646;2023-05-22T02:17:26;100090.47;;;15.47;nan
55685;BME280;41883;49.544;8.646;2023-05-22T02:19:51;100090.25;;;15.42;nan
55685;BME280;41883;49.544;8.646;2023-05-22T02:22:16;100088.72;;;15.33;nan
55685;BME280;41883;49.544;8.646;2023-05-22T02:24:45;100088.91;;;15.32;nan
55685;BME280;41883;49.544;8.646;2023-05-22T02:27:10;100087.06;;;15.32;nan
55685;BME280;41883;49.544;8.646;2023-05-22T02:29:36;100087.69;;;15.34;nan
55685;BME280;41883;49.544;8.646;2023-05-22T02:32:01;100089.53;;;15.34;nan
55685;BME280;41883;49.544;8.646;2023-05-22T02:34:27;100087.47;;;15.29;nan
55685;BME280;41883;49.544;8.646;2023-05-22T02:36:52;100087.03;;;15.25;nan
55685;BME280;41883;49.544;8.646;2023-05-22T02:39:17;100084.38;;;15.25;nan
55685;BME280;41883;49.544;8.646;2023-05-22T02:41:43;100079.66;;;15.27;nan
55685;BME280;41883;49.544;8.646;2023-05-22T02:44:08;100084.97;;;15.27;nan
55685;BME280;41883;49.544;8.646;2023-05-22T02:46:34;100084.16;;;15.27;nan
55685;BME280;41883;49.544;8.646;2023-05-22T02:48:59;100085.81;;;15.28;nan
55685;BME280;41883;49.544;8.646;2023-05-22T02:51:24;100088.50;;;15.28;nan
55685;BME280;41883;49.544;8.646;2023-05-22T02:53:50;100085.81;;;15.28;nan
55685;BME280;41883;49.544;8.646;2023-05-22T02:56:15;100084.16;;;15.27;nan
55685;BME280;41883;49.544;8.646;2023-05-22T02:58:42;100081.25;;;15.22;nan
55685;BME280;41883;49.544;8.646;2023-05-22T03:01:08;100090.41;;;15.13;nan
55685;BME280;41883;49.544;8.646;2023-05-22T03:03:34;100091.19;;;15.06;nan
55685;BME280;41883;49.544;8.646;2023-05-22T03:06:00;100104.63;;;14.98;nan
55685;BME280;41883;49.544;8.646;2023-05-22T03:08:26;100102.72;;;14.92;nan
55685;BME280;41883;49.544;8.646;2023-05-22T03:10:53;100105.88;;;14.81;nan
55685;BME280;41883;49.544;8.646;2023-05-22T03:13:18;100097.66;;;14.76;nan
55685;BME280;41883;49.544;8.646;2023-05-22T03:15:44;100099.69;;;14.74;nan
55685;BME280;41883;49.544;8.646;2023-05-22T03:18:09;100102.34;;;14.74;nan
55685;BME280;41883;49.544;8.646;2023-05-22T03:20:35;100097.66;;;14.76;nan
55685;BME280;41883;49.544;8.646;2023-05-22T03:23:00;100102.59;;;14.79;nan
55685;BME280;41883;49.544;8.646;2023-05-22T03:25:26;100105.06;;;14.80;nan
55685;BME280;41883;49.544;8.646;2023-05-22T03:27:51;100106.72;;;14.81;nan
55685;BME280;41883;49.544;8.646;2023-05-22T03:30:16;100104.22;;;14.80;nan
55685;BME280;41883;49.544;8.646;2023-05-22T03:32:41;100112.66;;;14.83;nan
55685;BME280;41883;49.544;8.646;2023-05-22T03:35:07;100111.66;;;14.84;nan
55685;BME280;41883;49.544;8.646;2023-05-22T03:37:32;100114.13;;;14.86;nan
55685;BME280;41883;49.544;8.646;2023-05-22T03:39:58;100116.78;;;14.86;nan
55685;BME280;41883;49.544;8.646;2023-05-22T03:42:23;100110.41;;;14.80;nan
55685;BME280;41883;49.544;8.646;2023-05-22T03:44:48;100111.97;;;14.75;nan
55685;BME280;41883;49.544;8.646;2023-05-22T03:47:14;100123.81;;;14.72;nan
55685;BME280;41883;49.544;8.646;2023-05-22T03:49:39;100112.91;;;14.67;nan
55685;BME280;41883;49.544;8.646;2023-05-22T03:52:05;100119.81;;;14.61;nan
55685;BME280;41883;49.544;8.646;2023-05-22T03:54:30;100120.81;;;14.60;nan
55685;BME280;41883;49.544;8.646;2023-05-22T03:56:56;100117.78;;;14.63;nan
55685;BME280;41883;49.544;8.646;2023-05-22T03:59:21;100120.06;;;14.67;nan
55685;BME280;41883;49.544;8.646;2023-05-22T04:01:47;100124.63;;;14.73;nan
55685;BME280;41883;49.544;8.646;2023-05-22T04:04:12;100124.06;;;14.77;nan
55685;BME280;41883;49.544;8.646;2023-05-22T04:06:38;100124.53;;;14.81;nan
55685;BME280;41883;49.544;8.646;2023-05-22T04:09:10;100132.31;;;14.82;nan
55685;BME280;41883;49.544;8.646;2023-05-22T04:11:37;100128.25;;;14.86;nan
55685;BME280;41883;49.544;8.646;2023-05-22T04:14:04;100126.88;;;14.91;nan
55685;BME280;41883;49.544;8.646;2023-05-22T04:16:29;100128.97;;;14.95;nan
55685;BME280;41883;49.544;8.646;2023-05-22T04:18:54;100134.34;;;15.02;nan
55685;BME280;41883;49.544;8.646;2023-05-22T04:21:20;100128.06;;;15.10;nan
55685;BME280;41883;49.544;8.646;2023-05-22T04:23:47;100135.09;;;15.17;nan
55685;BME280;41883;49.544;8.646;2023-05-22T04:26:14;100141.13;;;15.26;nan
55685;BME280;41883;49.544;8.646;2023-05-22T04:28:39;100147.13;;;15.35;nan
55685;BME280;41883;49.544;8.646;2023-05-22T04:31:05;100140.84;;;15.42;nan
55685;BME280;41883;49.544;8.646;2023-05-22T04:33:31;100142.16;;;15.53;nan
55685;BME280;41883;49.544;8.646;2023-05-22T04:35:58;100143.44;;;15.57;nan
55685;BME280;41883;49.544;8.646;2023-05-22T04:38:24;100145.50;;;15.62;nan
55685;BME280;41883;49.544;8.646;2023-05-22T04:40:50;100141.06;;;15.69;nan
55685;BME280;41883;49.544;8.646;2023-05-22T04:43:17;100141.94;;;15.76;nan
55685;BME280;41883;49.544;8.646;2023-05-22T04:45:42;100141.78;;;15.84;nan
55685;BME280;41883;49.544;8.646;2023-05-22T04:48:08;100149.66;;;15.92;nan
55685;BME280;41883;49.544;8.646;2023-05-22T04:50:33;100143.31;;;16.00;nan
55685;BME280;41883;49.544;8.646;2023-05-22T04:53:00;100142.16;;;16.09;nan
55685;BME280;41883;49.544;8.646;2023-05-22T04:55:28;100138.28;;;16.19;nan
55685;BME280;41883;49.544;8.646;2023-05-22T04:57:53;100138.31;;;16.25;nan
55685;BME280;41883;49.544;8.646;2023-05-22T05:00:20;100148.41;;;16.37;nan
55685;BME280;41883;49.544;8.646;2023-05-22T05:02:50;100142.72;;;16.46;nan
55685;BME280;41883;49.544;8.646;2023-05-22T05:05:15;100145.22;;;16.54;nan
55685;BME280;41883;49.544;8.646;2023-05-22T05:07:41;100146.88;;;16.62;nan
55685;BME280;41883;49.544;8.646;2023-05-22T05:10:07;100147.53;;;16.71;nan
55685;BME280;41883;49.544;8.646;2023-05-22T05:12:33;100145.53;;;16.86;nan
55685;BME280;41883;49.544;8.646;2023-05-22T05:14:58;100141.66;;;16.95;nan
55685;BME280;41883;49.544;8.646;2023-05-22T05:17:24;100143.13;;;17.11;nan
55685;BME280;41883;49.544;8.646;2023-05-22T05:19:49;100146.59;;;17.25;nan
55685;BME280;41883;49.544;8.646;2023-05-22T05:22:14;100151.16;;;17.38;nan
55685;BME280;41883;49.544;8.646;2023-05-22T05:24:40;100147.25;;;17.47;nan
55685;BME280;41883;49.544;8.646;2023-05-22T05:27:05;100140.03;;;17.54;nan
55685;BME280;41883;49.544;8.646;2023-05-22T05:29:30;100143.50;;;17.68;nan
55685;BME280;41883;49.544;8.646;2023-05-22T05:31:56;100138.78;;;17.83;nan
55685;BME280;41883;49.544;8.646;2023-05-22T05:34:21;100146.75;;;18.03;nan
55685;BME280;41883;49.544;8.646;2023-05-22T05:36:46;100150.41;;;18.22;nan
55685;BME280;41883;49.544;8.646;2023-05-22T05:39:12;100154.22;;;18.46;nan
55685;BME280;41883;49.544;8.646;2023-05-22T05:41:37;100159.06;;;18.70;nan
55685;BME280;41883;49.544;8.646;2023-05-22T05:44:03;100154.19;;;18.98;nan
55685;BME280;41883;49.544;8.646;2023-05-22T05:46:28;100160.78;;;19.27;nan
55685;BME280;41883;49.544;8.646;2023-05-22T05:48:53;100154.34;;;19.60;nan
55685;BME280;41883;49.544;8.646;2023-05-22T05:51:18;100156.38;;;20.08;nan
55685;BME280;41883;49.544;8.646;2023-05-22T05:53:45;100155.25;;;20.34;nan
55685;BME280;41883;49.544;8.646;2023-05-22T05:56:10;100151.34;;;20.67;nan
55685;BME280;41883;49.544;8.646;2023-05-22T05:58:36;100151.63;;;21.19;nan
55685;BME280;41883;49.544;8.646;2023-05-22T06:01:01;100160.22;;;21.63;nan
55685;BME280;41883;49.544;8.646;2023-05-22T06:15:34;100045.97;;;24.14;nan
55685;BME280;41883;49.544;8.646;2023-05-22T06:27:42;100042.50;;;25.43;nan
55685;BME280;41883;49.544;8.646;2023-05-22T06:30:07;100043.41;;;25.59;nan
55685;BME280;41883;49.544;8.646;2023-05-22T06:32:33;100042.06;;;25.56;nan
55685;BME280;41883;49.544;8.646;2023-05-22T06:34:58;100091.44;;;25.79;nan
55685;BME280;41883;49.544;8.646;2023-05-22T06:37:23;100050.78;;;25.74;nan
55685;BME280;41883;49.544;8.646;2023-05-22T06:44:39;100041.31;;;26.60;nan
55685;BME280;41883;49.544;8.646;2023-05-22T06:51:55;100116.25;;;26.86;nan
55685;BME280;41883;49.544;8.646;2023-05-22T07:01:36;100091.28;;;27.25;nan
55685;BME280;41883;49.544;8.646;2023-05-22T07:06:30;100033.09;;;27.67;nan
55685;BME280;41883;49.544;8.646;2023-05-22T07:16:13;100108.06;;;28.83;nan
55685;BME280;41883;49.544;8.646;2023-05-22T07:18:38;100107.00;;;28.79;nan
55685;BME280;41883;49.544;8.646;2023-05-22T07:25:54;100086.75;;;29.25;nan
55685;BME280;41883;49.544;8.646;2023-05-22T07:35:35;100064.66;;;29.31;nan
55685;BME280;41883;49.544;8.646;2023-05-22T07:38:00;100095.34;;;29.42;nan
55685;BME280;41883;49.544;8.646;2023-05-22T07:40:26;100062.81;;;29.51;nan
55685;BME280;41883;49.544;8.646;2023-05-22T08:28:53;100191.66;;;33.67;nan
55685;BME280;41883;49.544;8.646;2023-05-22T08:36:08;100144.31;;;34.59;nan
55685;BME280;41883;49.544;8.646;2023-05-22T08:38:34;100104.91;;;34.55;nan
55685;BME280;41883;49.544;8.646;2023-05-22T08:40:59;100109.28;;;34.47;nan
55685;BME280;41883;49.544;8.646;2023-05-22T08:43:24;100109.59;;;34.45;nan
55685;BME280;41883;49.544;8.646;2023-05-22T08:45:51;100107.31;;;34.39;nan
55685;BME280;41883;49.544;8.646;2023-05-22T08:48:19;100111.88;;;34.70;nan
55685;BME280;41883;49.544;8.646;2023-05-22T08:50:47;100105.84;;;34.94;nan
55685;BME280;41883;49.544;8.646;2023-05-22T08:53:21;100097.66;;;34.85;nan
55685;BME280;41883;49.544;8.646;2023-05-22T08:55:47;100100.34;;;35.02;nan
55685;BME280;41883;49.544;8.646;2023-05-22T08:58:13;100095.75;;;35.33;nan
55685;BME280;41883;49.544;8.646;2023-05-22T09:00:39;100098.41;;;35.67;nan
55685;BME280;41883;49.544;8.646;2023-05-22T09:03:05;100094.44;;;35.47;nan
55685;BME280;41883;49.544;8.646;2023-05-22T09:05:33;100097.91;;;35.65;nan
55685;BME280;41883;49.544;8.646;2023-05-22T09:08:00;100095.19;;;35.95;nan
55685;BME280;41883;49.544;8.646;2023-05-22T09:10:26;100093.75;;;35.89;nan
55685;BME280;41883;49.544;8.646;2023-05-22T09:13:07;100087.16;;;35.81;nan
55685;BME280;41883;49.544;8.646;2023-05-22T09:15:33;100097.31;;;35.51;nan
55685;BME280;41883;49.544;8.646;2023-05-22T09:17:59;100085.78;;;35.28;nan
55685;BME280;41883;49.544;8.646;2023-05-22T09:20:25;100099.38;;;35.16;nan
55685;BME280;41883;49.544;8.646;2023-05-22T09:22:50;100092.25;;;35.23;nan
55685;BME280;41883;49.544;8.646;2023-05-22T09:25:18;100085.78;;;35.19;nan
55685;BME280;41883;49.544;8.646;2023-05-22T09:27:44;100085.78;;;35.19;nan
55685;BME280;41883;49.544;8.646;2023-05-22T09:30:10;100080.63;;;35.09;nan
55685;BME280;41883;49.544;8.646;2023-05-22T09:32:35;100079.72;;;34.79;nan
55685;BME280;41883;49.544;8.646;2023-05-22T09:35:02;100083.91;;;34.59;nan
55685;BME280;41883;49.544;8.646;2023-05-22T09:37:31;100076.97;;;34.79;nan
55685;BME280;41883;49.544;8.646;2023-05-22T09:39:56;100072.41;;;35.00;nan
55685;BME280;41883;49.544;8.646;2023-05-22T09:42:22;100079.63;;;35.22;nan
55685;BME280;41883;49.544;8.646;2023-05-22T09:44:48;100080.72;;;35.30;nan
55685;BME280;41883;49.544;8.646;2023-05-22T09:47:13;100079.44;;;35.36;nan
55685;BME280;41883;49.544;8.646;2023-05-22T09:49:42;100080.63;;;35.65;nan
55685;BME280;41883;49.544;8.646;2023-05-22T09:52:08;100078.34;;;35.58;nan
55685;BME280;41883;49.544;8.646;2023-05-22T09:54:33;100083.63;;;35.42;nan
55685;BME280;41883;49.544;8.646;2023-05-22T09:56:59;100077.91;;;35.00;nan
55685;BME280;41883;49.544;8.646;2023-05-22T09:59:25;100065.97;;;34.18;nan
55685;BME280;41883;49.544;8.646;2023-05-22T10:01:51;100072.59;;;33.28;nan
55685;BME280;41883;49.544;8.646;2023-05-22T10:04:17;100068.13;;;32.42;nan
55685;BME280;41883;49.544;8.646;2023-05-22T10:06:47;100069.72;;;32.43;nan
55685;BME280;41883;49.544;8.646;2023-05-22T10:09:14;100069.19;;;33.00;nan
55685;BME280;41883;49.544;8.646;2023-05-22T10:11:43;100068.56;;;33.57;nan
55685;BME280;41883;49.544;8.646;2023-05-22T10:14:09;100065.75;;;34.05;nan
55685;BME280;41883;49.544;8.646;2023-05-22T10:16:34;100065.97;;;34.53;nan
55685;BME280;41883;49.544;8.646;2023-05-22T10:19:02;100068.66;;;35.05;nan
55685;BME280;41883;49.544;8.646;2023-05-22T10:21:27;100068.59;;;34.66;nan
55685;BME280;41883;49.544;8.646;2023-05-22T10:23:53;100062.25;;;34.48;nan
55685;BME280;41883;49.544;8.646;2023-05-22T10:26:19;100055.91;;;33.96;nan
55685;BME280;41883;49.544;8.646;2023-05-22T10:28:46;100051.63;;;33.24;nan
55685;BME280;41883;49.544;8.646;2023-05-22T10:31:28;100051.38;;;32.44;nan
55685;BME280;41883;49.544;8.646;2023-05-22T10:33:58;100049.84;;;32.15;nan
55685;BME280;41883;49.544;8.646;2023-05-22T10:41:16;100045.78;;;33.16;nan
55685;BME280;41883;49.544;8.646;2023-05-22T10:43:46;100051.63;;;34.21;nan
55685;BME280;41883;49.544;8.646;2023-05-22T10:46:12;100052.44;;;35.29;nan
55685;BME280;41883;49.544;8.646;2023-05-22T10:48:38;100053.88;;;36.25;nan
55685;BME280;41883;49.544;8.646;2023-05-22T10:51:03;100061.47;;;36.82;nan
55685;BME280;41883;49.544;8.646;2023-05-22T10:53:31;100055.25;;;37.06;nan
55685;BME280;41883;49.544;8.646;2023-05-22T10:55:57;100121.88;;;36.87;nan
55685;BME280;41883;49.544;8.646;2023-05-22T10:58:29;100127.34;;;36.33;nan
55685;BME280;41883;49.544;8.646;2023-05-22T11:01:13;100121.59;;;35.87;nan
55685;BME280;41883;49.544;8.646;2023-05-22T11:06:36;100121.47;;;35.84;nan
55685;BME280;41883;49.544;8.646;2023-05-22T11:12:10;100114.47;;;35.48;nan
55685;BME280;41883;49.544;8.646;2023-05-22T11:14:34;100120.63;;;36.22;nan
55685;BME280;41883;49.544;8.646;2023-05-22T11:17:00;100112.63;;;36.29;nan
55685;BME280;41883;49.544;8.646;2023-05-22T11:19:25;100116.38;;;35.94;nan
55685;BME280;41883;49.544;8.646;2023-05-22T11:21:50;100108.19;;;35.39;nan
55685;BME280;41883;49.544;8.646;2023-05-22T11:24:15;100114.69;;;35.81;nan
55685;BME280;41883;49.544;8.646;2023-05-22T11:26:42;100110.91;;;36.45;nan
55685;BME280;41883;49.544;8.646;2023-05-22T11:29:07;100114.09;;;36.89;nan
55685;BME280;41883;49.544;8.646;2023-05-22T11:31:32;100108.59;;;36.26;nan
55685;BME280;41883;49.544;8.646;2023-05-22T11:33:59;100095.66;;;35.03;nan
55685;BME280;41883;49.544;8.646;2023-05-22T11:36:24;100096.78;;;34.15;nan
55685;BME280;41883;49.544;8.646;2023-05-22T11:38:51;100101.22;;;33.53;nan
55685;BME280;41883;49.544;8.646;2023-05-22T11:41:20;100096.50;;;34.42;nan
55685;BME280;41883;49.544;8.646;2023-05-22T11:43:46;100093.91;;;35.54;nan
55685;BME280;41883;49.544;8.646;2023-05-22T11:46:11;100095.22;;;36.79;nan
55685;BME280;41883;49.544;8.646;2023-05-22T11:48:40;100094.59;;;37.89;nan
55685;BME280;41883;49.544;8.646;2023-05-22T11:51:06;100086.81;;;38.44;nan
55685;BME280;41883;49.544;8.646;2023-05-22T11:53:31;100083.97;;;38.28;nan
55685;BME280;41883;49.544;8.646;2023-05-22T11:56:01;100087.81;;;38.23;nan
55685;BME280;41883;49.544;8.646;2023-05-22T11:58:27;100078.50;;;38.03;nan
55685;BME280;41883;49.544;8.646;2023-05-22T12:00:57;100080.28;;;36.80;nan
55685;BME280;41883;49.544;8.646;2023-05-22T12:03:22;100082.28;;;35.87;nan
55685;BME280;41883;49.544;8.646;2023-05-22T12:05:49;100070.66;;;36.74;nan
55685;BME280;41883;49.544;8.646;2023-05-22T12:08:14;100081.81;;;36.90;nan
55685;BME280;41883;49.544;8.646;2023-05-22T12:10:44;100074.00;;;36.59;nan
55685;BME280;41883;49.544;8.646;2023-05-22T12:13:10;100077.53;;;36.80;nan
55685;BME280;41883;49.544;8.646;2023-05-22T12:15:35;100068.31;;;36.43;nan
55685;BME280;41883;49.544;8.646;2023-05-22T12:18:00;100055.91;;;34.92;nan
55685;BME280;41883;49.544;8.646;2023-05-22T12:20:28;100053.69;;;34.85;nan
55685;BME280;41883;49.544;8.646;2023-05-22T12:22:54;100055.88;;;33.87;nan
55685;BME280;41883;49.544;8.646;2023-05-22T12:25:20;100049.84;;;34.16;nan
55685;BME280;41883;49.544;8.646;2023-05-22T12:27:48;100047.84;;;33.51;nan
55685;BME280;41883;49.544;8.646;2023-05-22T12:30:15;100054.63;;;33.45;nan
55685;BME280;41883;49.544;8.646;2023-05-22T12:32:45;100046.97;;;33.02;nan
55685;BME280;41883;49.544;8.646;2023-05-22T12:35:14;100035.19;;;32.33;nan
55685;BME280;41883;49.544;8.646;2023-05-22T12:37:39;100041.44;;;32.70;nan
55685;BME280;41883;49.544;8.646;2023-05-22T12:40:04;100047.53;;;32.90;nan
55685;BME280;41883;49.544;8.646;2023-05-22T12:42:30;100043.00;;;32.63;nan
55685;BME280;41883;49.544;8.646;2023-05-22T12:44:55;100050.22;;;32.22;nan
55685;BME280;41883;49.544;8.646;2023-05-22T12:47:21;100051.59;;;31.97;nan
55685;BME280;41883;49.544;8.646;2023-05-22T12:49:47;100055.56;;;31.63;nan
55685;BME280;41883;49.544;8.646;2023-05-22T12:52:12;100042.59;;;31.69;nan
55685;BME280;41883;49.544;8.646;2023-05-22T12:54:37;100047.41;;;31.17;nan
55685;BME280;41883;49.544;8.646;2023-05-22T12:57:02;100047.47;;;31.44;nan
55685;BME280;41883;49.544;8.646;2023-05-22T12:59:28;100046.94;;;31.70;nan
55685;BME280;41883;49.544;8.646;2023-05-22T13:01:54;100049.44;;;31.39;nan
55685;BME280;41883;49.544;8.646;2023-05-22T13:04:21;100047.63;;;31.20;nan
55685;BME280;41883;49.544;8.646;2023-05-22T13:06:46;100047.75;;;31.43;nan
55685;BME280;41883;49.544;8.646;2023-05-22T13:09:11;100035.63;;;31.49;nan
55685;BME280;41883;49.544;8.646;2023-05-22T13:11:40;100038.84;;;31.51;nan
55685;BME280;41883;49.544;8.646;2023-05-22T13:14:05;100035.63;;;31.49;nan
55685;BME280;41883;49.544;8.646;2023-05-22T13:16:31;100028.81;;;31.32;nan
55685;BME280;41883;49.544;8.646;2023-05-22T13:18:56;100033.84;;;31.39;nan
55685;BME280;41883;49.544;8.646;2023-05-22T13:21:21;100033.66;;;31.36;nan
55685;BME280;41883;49.544;8.646;2023-05-22T13:23:46;100032.78;;;31.40;nan
55685;BME280;41883;49.544;8.646;2023-05-22T13:26:11;100022.91;;;31.39;nan
55685;BME280;41883;49.544;8.646;2023-05-22T13:28:37;100033.78;;;31.58;nan
55685;BME280;41883;49.544;8.646;2023-05-22T13:31:02;100018.69;;;31.33;nan
55685;BME280;41883;49.544;8.646;2023-05-22T13:33:27;100016.84;;;31.28;nan
55685;BME280;41883;49.544;8.646;2023-05-22T13:35:52;100017.19;;;31.41;nan
55685;BME280;41883;49.544;8.646;2023-05-22T13:38:17;100016.38;;;31.40;nan
55685;BME280;41883;49.544;8.646;2023-05-22T13:40:43;100011.72;;;31.41;nan
55685;BME280;41883;49.544;8.646;2023-05-22T13:43:08;100019.13;;;31.40;nan
55685;BME280;41883;49.544;8.646;2023-05-22T13:45:33;100021.81;;;31.26;nan
55685;BME280;41883;49.544;8.646;2023-05-22T13:47:58;100019.78;;;31.18;nan
55685;BME280;41883;49.544;8.646;2023-05-22T13:50:23;100023.00;;;31.06;nan
55685;BME280;41883;49.544;8.646;2023-05-22T13:52:48;100027.13;;;30.90;nan
55685;BME280;41883;49.544;8.646;2023-05-22T13:55:14;100017.28;;;30.89;nan
55685;BME280;41883;49.544;8.646;2023-05-22T13:57:39;100012.66;;;31.03;nan
55685;BME280;41883;49.544;8.646;2023-05-22T14:00:04;100007.72;;;31.05;nan
55685;BME280;41883;49.544;8.646;2023-05-22T14:02:30;100005.41;;;31.13;nan
55685;BME280;41883;49.544;8.646;2023-05-22T14:04:55;100007.38;;;31.40;nan
55685;BME280;41883;49.544;8.646;2023-05-22T14:07:20;99998.34;;;31.25;nan
55685;BME280;41883;49.544;8.646;2023-05-22T14:09:46;99995.19;;;31.32;nan
55685;BME280;41883;49.544;8.646;2023-05-22T14:12:11;99994.31;;;31.23;nan
55685;BME280;41883;49.544;8.646;2023-05-22T14:14:36;99990.06;;;31.30;nan
55685;BME280;41883;49.544;8.646;2023-05-22T14:17:04;99980.47;;;31.47;nan
55685;BME280;41883;49.544;8.646;2023-05-22T14:19:30;99986.84;;;31.56;nan
55685;BME280;41883;49.544;8.646;2023-05-22T14:21:55;99980.66;;;31.50;nan
55685;BME280;41883;49.544;8.646;2023-05-22T14:24:20;99989.47;;;31.61;nan
55685;BME280;41883;49.544;8.646;2023-05-22T14:26:45;99987.63;;;31.70;nan
55685;BME280;41883;49.544;8.646;2023-05-22T14:29:11;99994.47;;;31.82;nan
55685;BME280;41883;49.544;8.646;2023-05-22T14:31:43;100001.19;;;31.48;nan
55685;BME280;41883;49.544;8.646;2023-05-22T14:34:09;99996.66;;;31.43;nan
55685;BME280;41883;49.544;8.646;2023-05-22T14:36:35;100000.00;;;31.40;nan
55685;BME280;41883;49.544;8.646;2023-05-22T14:39:00;99993.19;;;31.24;nan
55685;BME280;41883;49.544;8.646;2023-05-22T14:41:25;99995.53;;;30.84;nan
55685;BME280;41883;49.544;8.646;2023-05-22T14:43:50;99997.31;;;30.75;nan
55685;BME280;41883;49.544;8.646;2023-05-22T14:46:16;99993.25;;;30.58;nan
55685;BME280;41883;49.544;8.646;2023-05-22T14:48:41;99996.25;;;30.57;nan
55685;BME280;41883;49.544;8.646;2023-05-22T14:51:06;99986.06;;;30.11;nan
55685;BME280;41883;49.544;8.646;2023-05-22T14:53:31;99985.91;;;29.59;nan
55685;BME280;41883;49.544;8.646;2023-05-22T14:55:57;99994.22;;;29.49;nan
55685;BME280;41883;49.544;8.646;2023-05-22T14:58:22;99991.19;;;29.26;nan
55685;BME280;41883;49.544;8.646;2023-05-22T15:00:47;99981.34;;;29.01;nan
55685;BME280;41883;49.544;8.646;2023-05-22T15:03:12;99988.00;;;28.90;nan
55685;BME280;41883;49.544;8.646;2023-05-22T15:05:38;99978.28;;;28.78;nan
55685;BME280;41883;49.544;8.646;2023-05-22T15:08:03;99976.00;;;28.62;nan
55685;BME280;41883;49.544;8.646;2023-05-22T15:10:28;99973.66;;;28.50;nan
55685;BME280;41883;49.544;8.646;2023-05-22T15:12:53;99980.56;;;28.32;nan
55685;BME280;41883;49.544;8.646;2023-05-22T15:15:19;99990.97;;;28.20;nan
55685;BME280;41883;49.544;8.646;2023-05-22T15:17:44;99994.03;;;28.08;nan